Time;durP1;ratioP1;P1;durP2;ratioP2;P2;SDS_P1;SDS_P2;PMS_P1;PMS_P2;Temp;Humidity;BMP_temperature;BMP_pressure;BME280_temperature;BME280_humidity;BME280_pressure;Samples;Min_cycle;Max_cycle;Signal;HPM_P1;HPM_P2
2022/02/25 00:00:52;;;;;;;14.30;7.63;;;6.90;77.80;;;;;;5054377;28;20723;-68
2022/02/25 00:03:20;;;;;;;15.70;7.43;;;6.90;77.90;;;;;;5058043;28;20288;-69
2022/02/25 00:05:47;;;;;;;14.93;7.30;;;6.90;78.10;;;;;;5055258;28;20244;-68
2022/02/25 00:08:14;;;;;;;13.87;7.90;;;6.90;78.20;;;;;;5071161;28;20741;-67
2022/02/25 00:10:41;;;;;;;14.57;7.40;;;6.90;78.50;;;;;;5054215;28;20436;-67
2022/02/25 00:13:08;;;;;;;16.33;7.20;;;7.00;78.70;;;;;;5059981;28;20244;-68
2022/02/25 00:15:35;;;;;;;14.87;7.57;;;7.00;78.80;;;;;;5055357;28;20622;-68
2022/02/25 00:18:02;;;;;;;14.17;7.73;;;7.00;78.90;;;;;;5059274;28;20620;-68
2022/02/25 00:20:30;;;;;;;13.70;7.13;;;7.10;79.00;;;;;;5054938;28;20577;-68
2022/02/25 00:22:57;;;;;;;14.07;6.30;;;7.10;79.10;;;;;;5059343;28;20212;-66
2022/02/25 00:25:24;;;;;;;13.33;7.07;;;7.20;79.40;;;;;;5064967;28;20643;-68
2022/02/25 00:27:51;;;;;;;14.37;7.00;;;7.20;79.50;;;;;;5057169;28;20233;-67
2022/02/25 00:30:17;;;;;;;14.83;6.60;;;7.30;79.70;;;;;;5063543;28;20296;-68
2022/02/25 00:32:44;;;;;;;13.30;6.50;;;7.40;79.70;;;;;;5053712;28;20702;-68
2022/02/25 00:35:11;;;;;;;12.93;6.57;;;7.40;79.40;;;;;;5055386;28;20216;-68
2022/02/25 00:37:39;;;;;;;15.53;6.70;;;7.50;79.40;;;;;;5056961;28;20212;-67
2022/02/25 00:40:09;;;;;;;15.03;7.20;;;7.50;79.30;;;;;;5058106;28;20305;-68
2022/02/25 00:42:36;;;;;;;13.83;7.50;;;7.60;79.00;;;;;;5058483;28;20204;-68
2022/02/25 00:45:03;;;;;;;12.53;6.83;;;7.70;78.70;;;;;;5060078;28;20206;-68
2022/02/25 00:47:30;;;;;;;12.73;6.93;;;7.70;78.60;;;;;;5062022;28;20207;-67
2022/02/25 00:49:57;;;;;;;14.53;6.57;;;7.80;78.70;;;;;;5058171;28;20264;-68
2022/02/25 00:52:23;;;;;;;13.90;7.50;;;7.80;78.70;;;;;;5062516;28;20301;-68
2022/02/25 00:54:52;;;;;;;13.87;6.93;;;7.80;78.70;;;;;;5058916;28;20233;-68
2022/02/25 00:57:18;;;;;;;15.23;6.63;;;7.90;78.70;;;;;;5059270;28;20238;-67
2022/02/25 00:59:45;;;;;;;14.10;7.20;;;7.90;78.60;;;;;;5057478;28;20237;-67
2022/02/25 01:02:12;;;;;;;10.97;5.90;;;7.90;78.30;;;;;;5054415;28;20566;-67
2022/02/25 01:04:39;;;;;;;10.90;6.47;;;8.00;78.30;;;;;;5055036;28;20631;-68
2022/02/25 01:07:06;;;;;;;13.50;6.80;;;8.00;78.00;;;;;;5044620;28;20210;-68
2022/02/25 01:09:33;;;;;;;13.63;6.30;;;8.00;77.80;;;;;;5051168;28;20241;-68
2022/02/25 01:12:01;;;;;;;14.43;6.13;;;8.00;77.70;;;;;;5053455;28;20218;-67
2022/02/25 01:14:28;;;;;;;13.23;6.83;;;8.10;77.70;;;;;;5055022;28;20329;-68
2022/02/25 01:16:55;;;;;;;11.73;6.37;;;8.10;77.50;;;;;;5053685;28;20309;-68
2022/02/25 01:19:21;;;;;;;13.40;6.90;;;8.10;77.30;;;;;;5054334;28;20209;-69
2022/02/25 01:21:48;;;;;;;11.80;6.57;;;8.10;77.30;;;;;;5054181;28;20230;-69
2022/02/25 01:24:15;;;;;;;15.17;6.77;;;8.10;77.40;;;;;;5054704;28;20626;-68
2022/02/25 01:26:42;;;;;;;13.53;6.93;;;8.10;77.30;;;;;;5050626;28;20220;-67
2022/02/25 01:29:11;;;;;;;13.50;6.83;;;8.10;77.30;;;;;;5051270;28;20236;-68
2022/02/25 01:31:43;;;;;;;11.37;6.57;;;8.10;77.50;;;;;;5054339;28;20515;-68
2022/02/25 01:34:10;;;;;;;11.90;6.40;;;8.10;77.40;;;;;;5064845;28;20251;-68
2022/02/25 01:36:37;;;;;;;18.27;7.50;;;8.10;77.40;;;;;;5054268;28;20289;-68
2022/02/25 01:39:04;;;;;;;12.60;6.17;;;8.20;77.50;;;;;;5052851;28;20206;-67
2022/02/25 01:41:32;;;;;;;16.10;7.20;;;8.20;77.50;;;;;;5048111;28;20774;-68
2022/02/25 01:44:19;;;;;;;11.63;6.73;;;8.20;77.40;;;;;;5053561;28;20213;-67
2022/02/25 01:46:47;;;;;;;12.87;6.43;;;8.20;77.40;;;;;;5054768;28;20638;-69
2022/02/25 01:49:14;;;;;;;10.90;5.87;;;8.20;77.40;;;;;;5051946;28;20222;-68
2022/02/25 01:51:41;;;;;;;15.20;6.40;;;8.20;77.40;;;;;;5053100;28;20209;-67
2022/02/25 01:54:08;;;;;;;11.33;5.90;;;8.10;77.30;;;;;;5053103;28;20212;-67
2022/02/25 01:56:37;;;;;;;14.20;7.10;;;8.20;77.40;;;;;;5059759;28;20566;-68
2022/02/25 01:59:04;;;;;;;12.57;5.93;;;8.20;77.40;;;;;;5056585;28;20202;-68
2022/02/25 02:01:33;;;;;;;12.13;6.37;;;8.20;77.40;;;;;;5048206;28;20209;-67
2022/02/25 02:04:00;;;;;;;12.77;6.07;;;8.20;77.40;;;;;;5052939;28;20206;-68
2022/02/25 02:06:27;;;;;;;12.00;6.27;;;8.20;77.40;;;;;;5053624;28;20202;-67
2022/02/25 02:08:54;;;;;;;12.50;6.00;;;8.30;78.20;;;;;;5051570;28;20218;-68
2022/02/25 02:11:29;;;;;;;12.90;6.20;;;8.20;77.40;;;;;;5051983;28;20687;-68
2022/02/25 02:13:57;;;;;;;10.37;5.97;;;8.20;77.30;;;;;;5053616;28;20424;-68
2022/02/25 02:16:24;;;;;;;11.17;6.03;;;8.30;77.40;;;;;;5047682;28;20202;-68
2022/02/25 02:18:53;;;;;;;12.33;6.07;;;8.30;77.30;;;;;;5049040;28;20286;-68
2022/02/25 02:21:24;;;;;;;14.47;6.80;;;8.20;77.40;;;;;;5041869;28;20594;-68
2022/02/25 02:23:52;;;;;;;13.33;5.83;;;8.20;77.40;;;;;;5053295;28;20289;-68
2022/02/25 02:26:19;;;;;;;11.23;6.03;;;8.20;77.40;;;;;;5055204;28;20210;-68
2022/02/25 02:28:46;;;;;;;12.47;5.87;;;8.20;77.40;;;;;;5062245;28;20612;-69
2022/02/25 02:31:13;;;;;;;11.80;6.00;;;8.20;77.50;;;;;;5055736;28;20210;-68
2022/02/25 02:33:40;;;;;;;13.07;6.17;;;8.10;77.60;;;;;;5052327;28;20643;-68
2022/02/25 02:36:08;;;;;;;10.90;5.43;;;8.10;77.70;;;;;;5046146;28;20213;-68
2022/02/25 02:38:35;;;;;;;12.17;6.87;;;8.10;77.80;;;;;;5045104;28;20240;-67
2022/02/25 02:41:03;;;;;;;11.43;5.37;;;8.00;77.90;;;;;;5046201;28;20234;-68
2022/02/25 02:43:30;;;;;;;13.93;6.50;;;8.00;78.00;;;;;;5048871;28;20229;-68
2022/02/25 02:45:57;;;;;;;10.13;6.10;;;8.00;78.30;;;;;;5051692;28;20214;-68
2022/02/25 02:48:24;;;;;;;14.27;6.47;;;8.00;78.30;;;;;;5051824;28;20209;-69
2022/02/25 02:50:51;;;;;;;10.17;6.10;;;8.00;78.50;;;;;;5055156;28;20236;-68
2022/02/25 02:53:18;;;;;;;12.43;5.93;;;8.00;78.70;;;;;;5057742;28;20213;-67
2022/02/25 02:55:46;;;;;;;11.03;5.73;;;7.90;78.80;;;;;;5046921;28;20238;-68
2022/02/25 02:58:14;;;;;;;13.87;5.80;;;7.90;78.80;;;;;;5039674;28;20685;-67
2022/02/25 03:00:44;;;;;;;12.43;5.63;;;8.00;78.90;;;;;;5043944;28;20205;-68
2022/02/25 03:03:11;;;;;;;11.27;6.03;;;7.90;79.10;;;;;;5044836;28;20293;-67
2022/02/25 03:05:38;;;;;;;10.60;5.40;;;7.90;79.20;;;;;;5040121;28;20230;-67
2022/02/25 03:08:06;;;;;;;10.70;5.90;;;7.90;79.40;;;;;;5052095;28;20202;-67
2022/02/25 03:10:33;;;;;;;11.90;6.07;;;7.80;79.50;;;;;;5047999;28;20225;-68
2022/02/25 03:13:01;;;;;;;11.07;5.73;;;7.80;79.60;;;;;;5051517;28;20190;-67
2022/02/25 03:15:29;;;;;;;11.57;5.67;;;7.80;79.70;;;;;;5051567;28;20706;-67
2022/02/25 03:17:56;;;;;;;11.40;5.50;;;7.80;80.00;;;;;;5047462;28;20290;-67
2022/02/25 03:20:23;;;;;;;12.23;5.43;;;7.80;80.10;;;;;;5050983;28;20232;-67
2022/02/25 03:22:50;;;;;;;10.47;5.83;;;7.70;80.30;;;;;;5052842;28;20288;-68
2022/02/25 03:25:18;;;;;;;12.40;5.30;;;7.70;80.30;;;;;;5052331;28;20213;-67
2022/02/25 03:27:45;;;;;;;15.67;5.80;;;7.70;80.50;;;;;;5053724;28;20273;-67
2022/02/25 03:30:12;;;;;;;12.70;5.60;;;7.70;80.70;;;;;;5057164;28;20236;-67
2022/02/25 03:32:42;;;;;;;10.03;5.60;;;7.60;80.80;;;;;;5052153;28;20201;-67
2022/02/25 03:35:10;;;;;;;8.83;5.53;;;7.60;81.10;;;;;;5039790;28;20207;-67
2022/02/25 03:37:37;;;;;;;11.10;5.80;;;7.60;81.10;;;;;;5051493;28;20198;-68
2022/02/25 03:40:05;;;;;;;9.67;5.40;;;7.60;81.40;;;;;;5053948;28;20269;-68
2022/02/25 03:42:32;;;;;;;10.53;5.43;;;7.60;81.60;;;;;;5048214;28;20359;-69
2022/02/25 03:44:59;;;;;;;11.50;5.97;;;7.60;81.60;;;;;;5056031;28;20206;-68
2022/02/25 03:47:26;;;;;;;12.03;5.50;;;7.60;81.80;;;;;;5056191;28;20721;-67
2022/02/25 03:49:54;;;;;;;10.07;5.03;;;7.60;82.00;;;;;;5055777;28;20225;-67
2022/02/25 03:52:21;;;;;;;13.47;5.00;;;7.60;82.10;;;;;;5051567;28;20210;-68
2022/02/25 03:54:48;;;;;;;9.10;5.13;;;7.60;82.30;;;;;;5055557;28;20296;-69
2022/02/25 03:57:15;;;;;;;11.20;5.67;;;7.60;82.50;;;;;;5068966;28;20220;-67
2022/02/25 03:59:42;;;;;;;13.60;5.83;;;7.60;82.40;;;;;;5054865;28;20293;-68
2022/02/25 04:02:09;;;;;;;10.70;5.40;;;7.60;82.60;;;;;;5052197;28;20209;-67
2022/02/25 04:04:35;;;;;;;11.47;5.80;;;7.60;83.40;;;;;;5051952;28;20210;-67
2022/02/25 04:07:04;;;;;;;12.27;5.40;;;7.60;82.70;;;;;;5047800;28;20300;-68
2022/02/25 04:09:31;;;;;;;9.03;4.93;;;7.60;82.80;;;;;;5055356;28;20228;-67
2022/02/25 04:11:58;;;;;;;11.33;6.03;;;7.60;82.90;;;;;;5052245;28;20218;-69
2022/02/25 04:14:24;;;;;;;11.80;5.37;;;7.70;83.10;;;;;;5063514;28;20205;-68
2022/02/25 04:16:52;;;;;;;11.07;5.50;;;7.60;83.20;;;;;;5055291;28;20206;-67
2022/02/25 04:19:20;;;;;;;10.07;5.73;;;7.60;83.20;;;;;;5045613;28;20202;-67
2022/02/25 04:21:48;;;;;;;11.77;5.53;;;7.60;83.60;;;;;;5054058;28;20280;-68
2022/02/25 04:24:16;;;;;;;15.40;6.00;;;7.60;83.60;;;;;;5055124;28;20213;-67
2022/02/25 04:26:43;;;;;;;9.10;5.37;;;7.60;83.60;;;;;;5052847;28;20205;-67
2022/02/25 04:29:11;;;;;;;11.57;5.30;;;7.50;83.60;;;;;;5052115;28;20212;-68
2022/02/25 04:31:37;;;;;;;10.67;5.33;;;7.60;84.40;;;;;;5057684;28;20241;-69
2022/02/25 04:34:04;;;;;;;10.20;5.17;;;7.50;84.50;;;;;;5069438;28;20278;-68
2022/02/25 04:36:33;;;;;;;8.03;4.73;;;7.50;84.80;;;;;;5051723;28;20222;-68
2022/02/25 04:39:00;;;;;;;7.63;4.70;;;7.50;85.30;;;;;;5054613;28;20201;-67
2022/02/25 04:41:28;;;;;;;10.17;5.03;;;7.50;85.60;;;;;;5049562;28;20309;-68
2022/02/25 04:43:55;;;;;;;11.33;5.60;;;7.50;86.00;;;;;;5054395;28;20301;-67
2022/02/25 04:46:26;;;;;;;11.47;4.80;;;7.50;86.40;;;;;;5054818;28;20297;-69
2022/02/25 04:48:53;;;;;;;8.17;4.77;;;7.50;86.70;;;;;;5051588;28;20206;-70
2022/02/25 04:51:21;;;;;;;10.47;4.20;;;7.50;87.30;;;;;;5054237;28;20881;-68
2022/02/25 04:53:49;;;;;;;6.73;4.33;;;7.50;88.10;;;;;;5055107;28;20616;-68
2022/02/25 04:56:16;;;;;;;7.07;4.00;;;7.50;89.10;;;;;;5059462;28;20197;-69
2022/02/25 04:58:44;;;;;;;4.90;2.80;;;7.60;90.20;;;;;;5058866;28;20715;-68
2022/02/25 05:01:11;;;;;;;2.87;2.23;;;7.60;90.90;;;;;;5050125;28;20245;-69
2022/02/25 05:03:38;;;;;;;3.10;1.83;;;7.70;91.50;;;;;;5051233;28;20285;-68
2022/02/25 05:06:05;;;;;;;3.37;1.40;;;7.80;92.40;;;;;;5047671;28;20214;-68
2022/02/25 05:08:32;;;;;;;2.30;1.63;;;7.70;92.90;;;;;;5054105;28;20296;-68
2022/02/25 05:10:59;;;;;;;2.90;1.30;;;7.80;93.30;;;;;;5049414;28;20771;-68
2022/02/25 05:13:26;;;;;;;1.33;1.00;;;7.80;93.70;;;;;;5050608;28;20236;-67
2022/02/25 05:21:24;;;;;;;1.53;0.90;;;7.80;94.20;;;;;;5050057;28;20747;-67
2022/02/25 05:23:51;;;;;;;2.37;0.70;;;7.80;94.20;;;;;;5052651;28;20285;-67
2022/02/25 05:26:18;;;;;;;0.70;0.63;;;7.70;94.40;;;;;;5052785;28;20216;-67
2022/02/25 05:28:45;;;;;;;0.53;0.53;;;7.70;94.60;;;;;;5054626;28;20468;-67
2022/02/25 05:31:14;;;;;;;1.40;0.70;;;7.70;94.90;;;;;;5051918;28;20249;-66
2022/02/25 05:33:42;;;;;;;0.90;0.60;;;7.60;95.00;;;;;;5067261;28;20211;-67
2022/02/25 05:36:08;;;;;;;1.13;0.73;;;7.60;95.20;;;;;;5045725;28;20206;-66
2022/02/25 05:38:35;;;;;;;0.67;0.50;;;7.60;95.50;;;;;;5052880;28;20210;-66
2022/02/25 05:41:03;;;;;;;0.60;0.40;;;7.60;95.80;;;;;;5047700;28;20241;-68
2022/02/25 05:43:30;;;;;;;1.00;0.60;;;7.60;96.10;;;;;;5052016;28;20201;-68
2022/02/25 05:45:56;;;;;;;0.90;0.70;;;7.60;96.40;;;;;;5052637;28;20225;-68
2022/02/25 05:48:25;;;;;;;1.37;0.70;;;7.50;96.50;;;;;;5053187;28;20206;-67
2022/02/25 05:50:52;;;;;;;0.73;0.40;;;7.50;96.60;;;;;;5056197;28;20591;-67
2022/02/25 05:53:19;;;;;;;0.40;0.40;;;7.40;96.20;;;;;;5059084;28;20213;-67
2022/02/25 05:55:45;;;;;;;0.67;0.60;;;7.40;96.20;;;;;;5054255;28;20213;-68
2022/02/25 05:58:12;;;;;;;0.77;0.50;;;7.30;96.50;;;;;;5064283;28;20288;-67
2022/02/25 06:00:40;;;;;;;0.60;0.50;;;7.20;96.40;;;;;;5044240;28;20573;-68
2022/02/25 06:03:07;;;;;;;0.43;0.43;;;7.20;96.70;;;;;;5052827;28;20210;-67
2022/02/25 06:05:36;;;;;;;2.13;0.60;;;7.20;97.00;;;;;;5053190;28;20292;-68
2022/02/25 06:08:05;;;;;;;0.60;0.50;;;7.10;97.30;;;;;;5052878;28;20216;-68
2022/02/25 06:10:32;;;;;;;0.60;0.60;;;7.10;97.70;;;;;;5044071;28;20248;-66
2022/02/25 06:13:00;;;;;;;0.50;0.50;;;7.00;97.80;;;;;;5055623;28;20215;-67
2022/02/25 06:15:27;;;;;;;0.50;0.50;;;7.00;98.20;;;;;;5049927;28;20677;-67
2022/02/25 06:17:54;;;;;;;0.63;0.57;;;7.00;98.60;;;;;;5047453;28;20252;-68
2022/02/25 06:20:23;;;;;;;0.40;0.40;;;7.00;99.00;;;;;;5041076;28;20233;-66
2022/02/25 06:22:51;;;;;;;0.53;0.53;;;6.90;99.40;;;;;;5053105;28;20251;-67
2022/02/25 06:25:18;;;;;;;0.60;0.60;;;6.90;99.70;;;;;;5059821;28;20224;-67
2022/02/25 06:27:45;;;;;;;0.70;0.60;;;7.00;99.90;;;;;;5053252;28;20210;-67
2022/02/25 06:30:14;;;;;;;1.43;0.60;;;6.90;99.90;;;;;;5051232;28;20236;-68
2022/02/25 06:32:42;;;;;;;3.80;0.90;;;6.90;99.90;;;;;;5061301;28;20723;-67
2022/02/25 06:35:09;;;;;;;1.47;0.90;;;6.90;99.90;;;;;;5059633;28;20669;-68
2022/02/25 06:37:36;;;;;;;1.00;0.80;;;6.90;99.90;;;;;;5051571;28;20210;-67
2022/02/25 06:40:06;;;;;;;1.43;1.13;;;6.90;99.90;;;;;;5052776;28;20335;-66
2022/02/25 06:42:33;;;;;;;1.00;0.83;;;6.80;99.90;;;;;;5052435;28;20312;-68
2022/02/25 06:45:00;;;;;;;1.20;1.10;;;6.80;99.90;;;;;;5052137;28;20256;-68
2022/02/25 06:47:27;;;;;;;0.83;0.70;;;6.80;99.90;;;;;;5051188;28;20216;-67
2022/02/25 06:49:54;;;;;;;0.90;0.90;;;6.80;99.90;;;;;;5049592;28;20214;-67
2022/02/25 06:52:21;;;;;;;1.23;0.93;;;6.70;99.90;;;;;;5043997;28;20216;-69
2022/02/25 06:54:48;;;;;;;1.00;0.87;;;6.80;99.90;;;;;;5052018;28;20694;-67
2022/02/25 06:57:16;;;;;;;1.77;1.20;;;6.70;99.90;;;;;;5052592;28;20589;-67
2022/02/25 06:59:43;;;;;;;1.10;0.97;;;6.80;99.90;;;;;;5040740;28;20326;-69
2022/02/25 07:02:10;;;;;;;1.17;0.97;;;6.70;99.90;;;;;;5049784;28;20572;-66
2022/02/25 07:04:37;;;;;;;1.00;1.00;;;6.70;99.90;;;;;;5050726;28;20210;-68
2022/02/25 07:07:05;;;;;;;0.67;0.67;;;6.70;99.90;;;;;;5053996;28;20628;-67
2022/02/25 07:09:32;;;;;;;1.27;1.10;;;6.70;99.90;;;;;;5039505;28;20213;-67
2022/02/25 07:11:58;;;;;;;1.13;0.87;;;6.70;99.90;;;;;;5052681;28;20229;-68
2022/02/25 07:14:27;;;;;;;3.60;1.10;;;6.70;99.90;;;;;;5070178;28;20258;-67
2022/02/25 07:16:54;;;;;;;1.67;1.00;;;6.60;99.90;;;;;;5053617;28;20314;-69
2022/02/25 07:19:21;;;;;;;1.27;1.13;;;6.60;99.90;;;;;;5060856;28;20205;-66
2022/02/25 07:21:47;;;;;;;1.37;1.17;;;6.60;99.90;;;;;;5063361;28;20644;-68
2022/02/25 07:24:14;;;;;;;3.57;1.10;;;6.60;99.90;;;;;;5056555;28;20309;-67
2022/02/25 07:26:41;;;;;;;1.40;1.00;;;6.60;99.90;;;;;;5053841;28;20627;-66
2022/02/25 07:29:10;;;;;;;2.63;1.10;;;6.60;99.90;;;;;;5057063;28;20299;-67
2022/02/25 07:31:38;;;;;;;2.13;1.67;;;6.70;99.90;;;;;;5049901;28;20275;-68
2022/02/25 07:34:06;;;;;;;1.97;1.40;;;6.80;99.90;;;;;;5050754;28;20214;-67
2022/02/25 07:36:33;;;;;;;1.00;0.87;;;6.80;99.90;;;;;;5046516;28;20213;-67
2022/02/25 07:39:00;;;;;;;1.60;1.17;;;6.80;99.90;;;;;;5052556;28;20225;-67
2022/02/25 07:41:27;;;;;;;1.07;0.90;;;6.90;99.90;;;;;;5046817;28;20301;-67
2022/02/25 07:43:54;;;;;;;1.40;1.30;;;6.90;99.90;;;;;;5054395;28;20694;-68
2022/02/25 07:46:21;;;;;;;1.00;0.87;;;7.00;99.90;;;;;;5052469;28;20293;-68
2022/02/25 07:48:50;;;;;;;1.30;0.70;;;7.00;99.90;;;;;;5060240;28;20197;-67
2022/02/25 07:51:16;;;;;;;1.13;1.00;;;7.00;99.90;;;;;;5055883;28;20230;-68
2022/02/25 07:53:45;;;;;;;0.90;0.90;;;7.10;99.90;;;;;;5052595;28;20302;-67
2022/02/25 07:56:14;;;;;;;1.70;1.20;;;7.20;99.90;;;;;;5053723;28;20228;-68
2022/02/25 07:58:41;;;;;;;0.83;0.83;;;7.20;99.90;;;;;;5053500;28;20518;-68
2022/02/25 08:01:08;;;;;;;0.80;0.70;;;7.20;99.90;;;;;;5048478;28;20230;-69
2022/02/25 08:03:35;;;;;;;1.50;0.80;;;7.30;99.90;;;;;;5040570;28;20298;-77
2022/02/25 08:06:04;;;;;;;0.77;0.70;;;7.20;99.90;;;;;;5056227;28;20233;-77
2022/02/25 08:08:31;;;;;;;0.60;0.60;;;7.10;99.80;;;;;;5057197;28;20273;-76
2022/02/25 08:10:58;;;;;;;0.97;0.60;;;7.00;98.70;;;;;;5054841;28;20253;-77
2022/02/25 08:13:25;;;;;;;3.83;0.67;;;6.90;97.60;;;;;;5062119;28;20298;-76
2022/02/25 08:15:52;;;;;;;2.43;1.50;;;7.00;97.40;;;;;;5056872;28;20738;-75
2022/02/25 08:18:19;;;;;;;0.90;0.53;;;7.10;96.70;;;;;;5051047;28;20209;-77
2022/02/25 08:20:46;;;;;;;1.80;0.80;;;7.20;95.90;;;;;;5054660;28;20742;-76
2022/02/25 08:23:14;;;;;;;1.33;0.90;;;7.40;95.70;;;;;;5058610;28;20284;-76
2022/02/25 08:25:41;;;;;;;1.10;0.90;;;7.60;95.20;;;;;;5053707;28;20213;-76
2022/02/25 08:28:10;;;;;;;2.17;0.93;;;7.90;94.90;;;;;;5063318;28;20233;-76
2022/02/25 08:30:39;;;;;;;1.40;0.97;;;8.20;94.40;;;;;;5059417;28;20244;-75
2022/02/25 08:33:06;;;;;;;2.30;1.00;;;8.40;93.70;;;;;;5059275;28;20306;-76
2022/02/25 08:35:35;;;;;;;1.57;1.20;;;8.50;92.80;;;;;;5053109;28;20225;-77
2022/02/25 08:38:04;;;;;;;2.07;1.10;;;8.50;91.90;;;;;;5066222;28;20213;-77
2022/02/25 08:40:33;;;;;;;3.47;0.90;;;8.70;91.90;;;;;;5061898;28;20730;-77
2022/02/25 08:43:00;;;;;;;0.80;0.60;;;8.80;91.50;;;;;;5061840;28;20734;-70
2022/02/25 08:45:29;;;;;;;1.00;0.67;;;8.90;90.80;;;;;;5057287;28;20226;-77
2022/02/25 08:47:57;;;;;;;0.60;0.60;;;8.90;89.80;;;;;;5057270;28;20218;-76
2022/02/25 08:50:24;;;;;;;2.43;1.20;;;8.90;89.40;;;;;;5070809;28;20280;-77
2022/02/25 08:52:53;;;;;;;1.47;1.00;;;8.90;89.10;;;;;;5057005;28;20234;-76
2022/02/25 08:55:22;;;;;;;0.83;0.70;;;8.80;88.30;;;;;;5052827;28;20293;-76
2022/02/25 08:57:51;;;;;;;1.97;1.10;;;8.90;88.50;;;;;;5060152;28;20302;-72
2022/02/25 09:00:20;;;;;;;1.67;0.90;;;8.90;88.10;;;;;;5055795;28;20666;-75
2022/02/25 09:02:48;;;;;;;1.27;0.90;;;9.00;87.40;;;;;;5062128;28;20210;-74
2022/02/25 09:05:16;;;;;;;1.40;0.80;;;9.10;87.50;;;;;;5055285;28;20229;-73
2022/02/25 09:07:43;;;;;;;1.43;0.73;;;9.10;87.50;;;;;;5063113;28;20693;-76
2022/02/25 09:10:12;;;;;;;2.13;1.07;;;9.20;86.60;;;;;;5051340;28;20670;-75
2022/02/25 09:12:41;;;;;;;1.73;1.10;;;9.20;88.40;;;;;;5054553;28;20289;-77
2022/02/25 09:15:13;;;;;;;1.83;0.93;;;9.30;85.30;;;;;;5068672;28;20228;-78
2022/02/25 09:17:41;;;;;;;0.90;0.90;;;9.60;86.60;;;;;;5060996;28;20713;-80
2022/02/25 09:20:10;;;;;;;4.30;1.07;;;9.80;80.80;;;;;;5059959;28;20283;-75
2022/02/25 09:22:38;;;;;;;2.87;0.77;;;9.80;78.50;;;;;;5066824;28;20232;-78
2022/02/25 09:25:06;;;;;;;1.37;0.83;;;10.50;86.40;;;;;;5058594;28;20230;-78
2022/02/25 09:27:33;;;;;;;1.60;1.00;;;11.30;76.10;;;;;;5049219;28;20285;-78
2022/02/25 09:30:02;;;;;;;2.70;1.17;;;11.30;69.30;;;;;;5051138;28;20244;-77
2022/02/25 09:32:32;;;;;;;0.90;0.70;;;11.00;66.70;;;;;;5054929;28;20272;-72
2022/02/25 09:34:59;;;;;;;1.23;0.90;;;10.50;66.90;;;;;;5049942;28;20237;-73
2022/02/25 09:37:26;;;;;;;2.00;0.70;;;10.20;67.80;;;;;;5057537;28;20245;-73
2022/02/25 09:39:53;;;;;;;2.13;1.20;;;10.20;71.70;;;;;;5053166;28;20260;-74
2022/02/25 09:42:22;;;;;;;2.40;1.30;;;11.30;83.80;;;;;;5051757;28;20203;-76
2022/02/25 09:44:49;;;;;;;0.73;0.50;;;13.60;79.60;;;;;;5049833;28;20202;-71
2022/02/25 09:47:17;;;;;;;0.60;0.60;;;15.20;63.00;;;;;;5054744;28;20264;-73
2022/02/25 09:49:45;;;;;;;1.67;0.73;;;16.40;59.20;;;;;;5055209;28;20216;-74
2022/02/25 09:52:14;;;;;;;1.30;0.70;;;18.30;55.30;;;;;;5043839;28;20226;-74
2022/02/25 09:54:41;;;;;;;1.23;0.60;;;21.00;46.00;;;;;;5054442;28;20262;-74
2022/02/25 09:57:08;;;;;;;2.70;0.90;;;22.10;41.90;;;;;;5062903;28;20247;-76
2022/02/25 09:59:35;;;;;;;1.80;0.88;;;22.80;39.10;;;;;;5053698;28;20249;-74
2022/02/25 10:02:04;;;;;;;1.92;0.80;;;22.00;36.40;;;;;;5055812;28;20209;-79
2022/02/25 10:04:31;;;;;;;2.90;0.70;;;20.70;38.30;;;;;;5049963;28;20206;-73
2022/02/25 10:07:00;;;;;;;2.00;0.87;;;19.50;37.80;;;;;;5052075;28;20377;-72
2022/02/25 10:09:31;;;;;;;1.80;0.90;;;18.00;38.90;;;;;;5046443;28;20210;-73
2022/02/25 10:12:09;;;;;;;1.70;1.00;;;16.60;40.50;;;;;;5053132;28;20225;-75
2022/02/25 10:14:38;;;;;;;2.57;0.80;;;15.20;42.30;;;;;;5047857;28;20198;-75
2022/02/25 10:17:10;;;;;;;5.67;0.93;;;14.50;45.60;;;;;;5049285;28;20268;-74
2022/02/25 10:19:37;;;;;;;1.73;1.00;;;13.90;45.70;;;;;;5057259;28;20296;-78
2022/02/25 10:22:18;;;;;;;2.57;1.03;;;13.40;48.60;;;;;;5063077;28;20209;-76
2022/02/25 10:24:47;;;;;;;2.53;0.90;;;13.00;48.10;;;;;;5056302;28;20202;-78
2022/02/25 10:27:23;;;;;;;2.50;0.50;;;13.00;53.90;;;;;;5059021;28;20298;-70
2022/02/25 10:29:55;;;;;;;2.23;0.87;;;14.30;49.60;;;;;;5048770;28;20302;-74
2022/02/25 10:32:32;;;;;;;1.73;0.83;;;14.20;47.10;;;;;;5055738;28;20257;-71
2022/02/25 10:34:59;;;;;;;2.35;0.93;;;14.20;50.00;;;;;;5057602;28;20455;-75
2022/02/25 10:37:27;;;;;;;3.03;1.00;;;14.30;46.30;;;;;;5055274;28;20271;-75
2022/02/25 10:39:54;;;;;;;3.80;1.30;;;14.90;48.30;;;;;;5060098;28;20553;-71
2022/02/25 10:42:23;;;;;;;5.67;2.23;;;14.70;45.80;;;;;;5057829;28;20265;-74
2022/02/25 10:44:55;;;;;;;2.03;1.10;;;14.20;44.50;;;;;;5056562;28;20202;-71
2022/02/25 10:47:24;;;;;;;5.00;0.67;;;13.60;45.70;;;;;;5050027;28;20224;-72
2022/02/25 10:50:00;;;;;;;1.67;0.90;;;13.10;45.80;;;;;;5050640;28;20210;-73
2022/02/25 10:52:31;;;;;;;2.63;0.90;;;12.50;46.70;;;;;;5049892;28;20213;-73
2022/02/25 10:55:02;;;;;;;1.60;1.17;;;12.40;49.50;;;;;;5059493;28;20237;-73
2022/02/25 10:57:29;;;;;;;1.87;1.10;;;13.30;51.00;;;;;;5063890;28;20263;-73
2022/02/25 10:59:58;;;;;;;3.90;1.00;;;13.90;48.40;;;;;;5065524;28;20208;-72
2022/02/25 11:02:30;;;;;;;3.80;1.47;;;14.50;51.80;;;;;;5061890;28;20681;-72
2022/02/25 11:05:02;;;;;;;1.57;0.97;;;16.30;50.30;;;;;;5053131;28;20676;-72
2022/02/25 11:07:31;;;;;;;2.07;1.30;;;18.70;46.10;;;;;;5049778;28;20241;-73
2022/02/25 11:09:58;;;;;;;3.00;1.07;;;19.90;41.30;;;;;;5062831;28;20212;-70
2022/02/25 11:12:26;;;;;;;4.37;1.30;;;19.40;42.20;;;;;;5068386;28;20251;-70
2022/02/25 11:14:54;;;;;;;1.70;1.10;;;18.70;40.50;;;;;;5053361;28;20561;-71
2022/02/25 11:17:21;;;;;;;3.10;1.30;;;19.90;44.50;;;;;;5048642;28;20360;-72
2022/02/25 11:19:50;;;;;;;4.07;1.30;;;23.40;41.30;;;;;;5054583;28;20236;-72
2022/02/25 11:22:19;;;;;;;2.75;1.25;;;26.80;35.80;;;;;;5055341;28;20222;-73
2022/02/25 11:24:49;;;;;;;2.55;1.40;;;29.50;31.10;;;;;;5049720;28;20659;-72
2022/02/25 11:27:16;;;;;;;1.92;1.10;;;31.40;28.70;;;;;;5058460;28;20296;-73
2022/02/25 11:29:51;;;;;;;3.25;1.20;;;32.10;27.20;;;;;;5058693;28;20206;-72
2022/02/25 11:32:22;;;;;;;4.88;1.90;;;32.70;27.30;;;;;;5052291;28;20450;-76
2022/02/25 11:34:49;;;;;;;4.15;2.08;;;33.70;25.70;;;;;;5060016;28;20432;-73
2022/02/25 11:37:40;;;;;;;3.97;1.60;;;34.30;25.60;;;;;;5058982;28;20479;-74
2022/02/25 11:40:13;;;;;;;4.20;1.75;;;35.00;24.40;;;;;;5062400;28;20446;-72
2022/02/25 11:42:40;;;;;;;1.90;1.63;;;35.60;24.20;;;;;;5057675;28;20678;-72
2022/02/25 11:45:24;;;;;;;2.47;1.30;;;36.60;23.90;;;;;;5054689;28;20211;-72
2022/02/25 11:47:54;;;;;;;4.72;1.60;;;37.40;22.80;;;;;;5057609;28;20675;-71
2022/02/25 11:50:36;;;;;;;3.75;1.60;;;37.60;22.30;;;;;;5063090;28;20685;-73
2022/02/25 11:53:19;;;;;;;2.63;1.35;;;35.80;22.10;;;;;;5047833;28;20594;-70
2022/02/25 11:55:48;;;;;;;3.60;2.45;;;33.80;22.40;;;;;;5057086;28;20197;-71
2022/02/25 11:58:41;;;;;;;5.75;1.38;;;30.80;23.50;;;;;;5051242;28;20206;-72
2022/02/25 12:01:10;;;;;;;5.78;1.67;;;27.60;27.60;;;;;;5052037;28;20209;-70
2022/02/25 12:03:57;;;;;;;4.50;1.60;;;26.20;28.90;;;;;;5054534;28;20483;-72
2022/02/25 12:06:28;;;;;;;4.25;1.40;;;26.80;28.40;;;;;;5058109;28;20460;-72
2022/02/25 12:08:58;;;;;;;3.60;1.83;;;29.40;26.80;;;;;;5064928;28;20244;-71
2022/02/25 12:11:34;;;;;;;6.20;1.92;;;31.70;25.70;;;;;;5065893;28;20198;-71
2022/02/25 12:14:01;;;;;;;2.97;1.40;;;33.80;24.20;;;;;;5062199;28;20201;-70
2022/02/25 12:16:33;;;;;;;2.58;1.67;;;32.80;23.30;;;;;;5056487;28;20269;-70
2022/02/25 12:19:11;;;;;;;5.32;1.52;;;30.80;24.70;;;;;;5055548;28;20302;-70
2022/02/25 12:21:43;;;;;;;3.58;1.70;;;30.40;25.80;;;;;;5068697;28;20229;-72
2022/02/25 12:24:15;;;;;;;6.85;2.13;;;30.90;25.10;;;;;;5049759;28;20254;-71
2022/02/25 12:26:57;;;;;;;3.80;1.83;;;29.10;24.30;;;;;;5053084;28;20208;-71
2022/02/25 12:29:33;;;;;;;2.65;1.40;;;26.50;25.90;;;;;;5047233;28;20216;-70
2022/02/25 12:32:00;;;;;;;6.13;2.13;;;23.80;28.70;;;;;;5050769;28;20221;-70
2022/02/25 12:34:29;;;;;;;4.88;1.95;;;23.90;31.00;;;;;;5050390;28;20210;-70
2022/02/25 12:36:56;;;;;;;3.85;1.73;;;26.00;29.60;;;;;;5053655;28;20205;-71
2022/02/25 12:39:33;;;;;;;2.70;1.33;;;28.50;27.30;;;;;;5057871;28;20264;-71
2022/02/25 12:42:11;;;;;;;7.15;3.55;;;29.80;26.60;;;;;;5052467;28;20241;-70
2022/02/25 12:44:43;;;;;;;4.22;1.95;;;29.50;26.00;;;;;;5044588;28;20753;-70
2022/02/25 12:47:14;;;;;;;7.97;2.95;;;29.80;26.10;;;;;;5055256;28;20202;-70
2022/02/25 12:49:42;;;;;;;6.00;2.38;;;30.50;25.00;;;;;;5054531;28;20252;-71
2022/02/25 12:52:14;;;;;;;5.57;2.50;;;29.80;24.70;;;;;;5051857;28;20241;-70
2022/02/25 12:54:41;;;;;;;6.35;2.38;;;28.90;25.70;;;;;;5050044;28;20222;-70
2022/02/25 12:57:12;;;;;;;4.07;1.83;;;28.00;25.20;;;;;;5053102;28;20291;-70
2022/02/25 12:59:42;;;;;;;4.03;2.05;;;25.90;26.30;;;;;;5051522;28;20198;-70
2022/02/25 13:02:11;;;;;;;3.53;1.70;;;23.50;27.70;;;;;;5055705;28;20277;-70